sensor_id;sensor_type;location;lat;lon;timestamp;pressure;altitude;pressure_sealevel;temperature;humidity
65758;BME280;52495;52.208;5.158;2022-11-23T00:01:15;99402.41;;;8.70;99.63
65758;BME280;52495;52.208;5.158;2022-11-23T00:03:42;99402.44;;;8.68;99.65
65758;BME280;52495;52.208;5.158;2022-11-23T00:06:11;99399.94;;;8.67;100.00
65758;BME280;52495;52.208;5.158;2022-11-23T00:08:38;99395.69;;;8.64;100.00
65758;BME280;52495;52.208;5.158;2022-11-23T00:11:05;99400.81;;;8.65;100.00
65758;BME280;52495;52.208;5.158;2022-11-23T00:13:32;99411.13;;;8.64;100.00
65758;BME280;52495;52.208;5.158;2022-11-23T00:16:00;99412.00;;;8.64;100.00
65758;BME280;52495;52.208;5.158;2022-11-23T00:18:28;99420.50;;;8.67;100.00
65758;BME280;52495;52.208;5.158;2022-11-23T00:20:55;99419.75;;;8.63;99.68
65758;BME280;52495;52.208;5.158;2022-11-23T00:23:23;99425.75;;;8.63;100.00
65758;BME280;52495;52.208;5.158;2022-11-23T00:25:50;99424.78;;;8.68;100.00
65758;BME280;52495;52.208;5.158;2022-11-23T00:28:16;99428.25;;;8.65;100.00
65758;BME280;52495;52.208;5.158;2022-11-23T00:30:47;99436.88;;;8.64;100.00
65758;BME280;52495;52.208;5.158;2022-11-23T00:33:14;99440.28;;;8.64;100.00
65758;BME280;52495;52.208;5.158;2022-11-23T00:35:41;99440.31;;;8.63;100.00
65758;BME280;52495;52.208;5.158;2022-11-23T00:38:08;99443.69;;;8.65;100.00
65758;BME280;52495;52.208;5.158;2022-11-23T00:40:36;99443.75;;;8.63;100.00
65758;BME280;52495;52.208;5.158;2022-11-23T00:43:04;99442.91;;;8.63;100.00
65758;BME280;52495;52.208;5.158;2022-11-23T00:45:30;99448.03;;;8.64;100.00
65758;BME280;52495;52.208;5.158;2022-11-23T00:47:57;99454.00;;;8.65;99.77
65758;BME280;52495;52.208;5.158;2022-11-23T00:50:23;99448.09;;;8.61;100.00
65758;BME280;52495;52.208;5.158;2022-11-23T00:52:50;99449.78;;;8.62;99.67
65758;BME280;52495;52.208;5.158;2022-11-23T00:55:17;99450.69;;;8.61;100.00
65758;BME280;52495;52.208;5.158;2022-11-23T00:57:45;99452.38;;;8.62;100.00
65758;BME280;52495;52.208;5.158;2022-11-23T01:00:13;99457.50;;;8.62;99.73
65758;BME280;52495;52.208;5.158;2022-11-23T01:02:40;99471.19;;;8.63;100.00
65758;BME280;52495;52.208;5.158;2022-11-23T01:05:07;99472.06;;;8.63;100.00
65758;BME280;52495;52.208;5.158;2022-11-23T01:07:34;99474.56;;;8.65;100.00
65758;BME280;52495;52.208;5.158;2022-11-23T01:10:02;99474.56;;;8.65;99.78
65758;BME280;52495;52.208;5.158;2022-11-23T01:12:31;99465.06;;;8.67;100.00
65758;BME280;52495;52.208;5.158;2022-11-23T01:14:59;99472.84;;;8.65;99.98
65758;BME280;52495;52.208;5.158;2022-11-23T01:17:27;99482.25;;;8.67;99.85
65758;BME280;52495;52.208;5.158;2022-11-23T01:19:54;99477.94;;;8.67;99.45
65758;BME280;52495;52.208;5.158;2022-11-23T01:22:20;99477.06;;;8.68;99.86
65758;BME280;52495;52.208;5.158;2022-11-23T01:24:49;99477.16;;;8.65;99.87
65758;BME280;52495;52.208;5.158;2022-11-23T01:27:16;99482.28;;;8.65;99.90
65758;BME280;52495;52.208;5.158;2022-11-23T01:29:43;99481.38;;;8.68;100.00
65758;BME280;52495;52.208;5.158;2022-11-23T01:32:11;99484.84;;;8.67;99.63
65758;BME280;52495;52.208;5.158;2022-11-23T01:34:37;99483.97;;;8.66;99.87
65758;BME280;52495;52.208;5.158;2022-11-23T01:37:04;99485.66;;;8.67;99.37
65758;BME280;52495;52.208;5.158;2022-11-23T01:39:30;99485.63;;;8.69;99.15
65758;BME280;52495;52.208;5.158;2022-11-23T01:41:57;99485.63;;;8.69;99.80
65758;BME280;52495;52.208;5.158;2022-11-23T01:44:27;99488.22;;;8.67;100.00
65758;BME280;52495;52.208;5.158;2022-11-23T01:46:54;99492.47;;;8.70;100.00
65758;BME280;52495;52.208;5.158;2022-11-23T01:49:24;99492.50;;;8.68;99.81
65758;BME280;52495;52.208;5.158;2022-11-23T01:51:55;99489.91;;;8.68;99.65
65758;BME280;52495;52.208;5.158;2022-11-23T01:54:27;99493.34;;;8.69;100.00
65758;BME280;52495;52.208;5.158;2022-11-23T01:56:57;99488.16;;;8.70;99.66
65758;BME280;52495;52.208;5.158;2022-11-23T01:59:26;99488.09;;;8.72;99.89
65758;BME280;52495;52.208;5.158;2022-11-23T02:01:54;99489.78;;;8.73;100.00
65758;BME280;52495;52.208;5.158;2022-11-23T02:04:24;99496.66;;;8.72;100.00
65758;BME280;52495;52.208;5.158;2022-11-23T02:06:53;99493.22;;;8.72;99.58
65758;BME280;52495;52.208;5.158;2022-11-23T02:09:21;99493.22;;;8.72;99.90
65758;BME280;52495;52.208;5.158;2022-11-23T02:11:48;99504.53;;;8.68;100.00
65758;BME280;52495;52.208;5.158;2022-11-23T02:14:15;99502.69;;;8.71;99.40
65758;BME280;52495;52.208;5.158;2022-11-23T02:16:42;99500.22;;;8.68;99.95
65758;BME280;52495;52.208;5.158;2022-11-23T02:19:16;99498.50;;;8.69;100.00
65758;BME280;52495;52.208;5.158;2022-11-23T02:21:50;99507.84;;;8.71;99.89
65758;BME280;52495;52.208;5.158;2022-11-23T02:24:23;99497.56;;;8.71;100.00
65758;BME280;52495;52.208;5.158;2022-11-23T02:26:52;99492.41;;;8.71;100.00
65758;BME280;52495;52.208;5.158;2022-11-23T02:29:21;99500.13;;;8.71;100.00
65758;BME280;52495;52.208;5.158;2022-11-23T02:31:50;99502.78;;;8.68;100.00
65758;BME280;52495;52.208;5.158;2022-11-23T02:34:17;99497.56;;;8.71;99.30
65758;BME280;52495;52.208;5.158;2022-11-23T02:36:45;99496.84;;;8.66;99.54
65758;BME280;52495;52.208;5.158;2022-11-23T02:39:15;99501.06;;;8.69;100.00
65758;BME280;52495;52.208;5.158;2022-11-23T02:41:46;99499.41;;;8.66;100.00
65758;BME280;52495;52.208;5.158;2022-11-23T02:44:24;99504.63;;;8.64;100.00
65758;BME280;52495;52.208;5.158;2022-11-23T02:46:52;99503.00;;;8.62;100.00
65758;BME280;52495;52.208;5.158;2022-11-23T02:49:19;99506.25;;;8.67;100.00
65758;BME280;52495;52.208;5.158;2022-11-23T02:51:49;99503.09;;;8.59;100.00
65758;BME280;52495;52.208;5.158;2022-11-23T02:54:18;99510.81;;;8.57;99.87
65758;BME280;52495;52.208;5.158;2022-11-23T02:56:44;99510.81;;;8.59;100.00
65758;BME280;52495;52.208;5.158;2022-11-23T02:59:11;99503.97;;;8.58;100.00
65758;BME280;52495;52.208;5.158;2022-11-23T03:01:42;99504.84;;;8.57;100.00
65758;BME280;52495;52.208;5.158;2022-11-23T03:04:11;99508.25;;;8.57;100.00
65758;BME280;52495;52.208;5.158;2022-11-23T03:06:38;99515.25;;;8.54;100.00
65758;BME280;52495;52.208;5.158;2022-11-23T03:09:05;99514.25;;;8.58;99.73
65758;BME280;52495;52.208;5.158;2022-11-23T03:11:32;99514.34;;;8.55;99.96
65758;BME280;52495;52.208;5.158;2022-11-23T03:14:01;99514.34;;;8.55;100.00
65758;BME280;52495;52.208;5.158;2022-11-23T03:16:30;99521.13;;;8.57;99.34
65758;BME280;52495;52.208;5.158;2022-11-23T03:19:00;99510.88;;;8.56;99.66
65758;BME280;52495;52.208;5.158;2022-11-23T03:21:27;99520.31;;;8.55;99.46
65758;BME280;52495;52.208;5.158;2022-11-23T03:23:54;99529.88;;;8.52;99.40
65758;BME280;52495;52.208;5.158;2022-11-23T03:26:21;99537.66;;;8.48;99.92
65758;BME280;52495;52.208;5.158;2022-11-23T03:28:57;99535.06;;;8.50;99.75
65758;BME280;52495;52.208;5.158;2022-11-23T03:31:26;99537.69;;;8.47;99.55
65758;BME280;52495;52.208;5.158;2022-11-23T03:33:54;99530.06;;;8.44;99.53
65758;BME280;52495;52.208;5.158;2022-11-23T03:36:23;99537.75;;;8.45;98.94
65758;BME280;52495;52.208;5.158;2022-11-23T03:38:50;99529.19;;;8.45;99.00
65758;BME280;52495;52.208;5.158;2022-11-23T03:41:31;99529.25;;;8.42;98.61
65758;BME280;52495;52.208;5.158;2022-11-23T03:43:58;99529.25;;;8.42;98.39
65758;BME280;52495;52.208;5.158;2022-11-23T03:46:25;99532.81;;;8.38;98.16
65758;BME280;52495;52.208;5.158;2022-11-23T03:48:52;99525.06;;;8.39;98.38
65758;BME280;52495;52.208;5.158;2022-11-23T03:51:19;99531.84;;;8.42;98.26
65758;BME280;52495;52.208;5.158;2022-11-23T03:53:47;99528.44;;;8.41;98.32
65758;BME280;52495;52.208;5.158;2022-11-23T03:56:15;99531.81;;;8.43;98.02
65758;BME280;52495;52.208;5.158;2022-11-23T03:58:44;99523.94;;;8.49;98.00
65758;BME280;52495;52.208;5.158;2022-11-23T04:01:13;99524.84;;;8.47;98.02
65758;BME280;52495;52.208;5.158;2022-11-23T04:03:42;99523.97;;;8.48;97.37
65758;BME280;52495;52.208;5.158;2022-11-23T04:06:22;99515.38;;;8.47;97.68
65758;BME280;52495;52.208;5.158;2022-11-23T04:08:56;99515.44;;;8.46;97.29
65758;BME280;52495;52.208;5.158;2022-11-23T04:11:37;99517.00;;;8.52;97.67
65758;BME280;52495;52.208;5.158;2022-11-23T04:14:04;99520.44;;;8.52;97.39
65758;BME280;52495;52.208;5.158;2022-11-23T04:16:31;99519.44;;;8.56;97.29
65758;BME280;52495;52.208;5.158;2022-11-23T04:18:58;99528.16;;;8.52;97.65
65758;BME280;52495;52.208;5.158;2022-11-23T04:21:25;99533.25;;;8.54;96.98
65758;BME280;52495;52.208;5.158;2022-11-23T04:23:52;99529.84;;;8.53;97.66
65758;BME280;52495;52.208;5.158;2022-11-23T04:26:20;99529.78;;;8.55;97.25
65758;BME280;52495;52.208;5.158;2022-11-23T04:28:47;99533.97;;;8.57;97.62
65758;BME280;52495;52.208;5.158;2022-11-23T04:31:14;99516.69;;;8.62;97.40
65758;BME280;52495;52.208;5.158;2022-11-23T04:33:50;99522.06;;;8.55;97.91
65758;BME280;52495;52.208;5.158;2022-11-23T04:36:19;99522.94;;;8.54;97.48
65758;BME280;52495;52.208;5.158;2022-11-23T04:38:46;99522.16;;;8.52;97.62
65758;BME280;52495;52.208;5.158;2022-11-23T04:41:15;99527.22;;;8.55;97.76
65758;BME280;52495;52.208;5.158;2022-11-23T04:43:46;99527.31;;;8.52;97.64
65758;BME280;52495;52.208;5.158;2022-11-23T04:46:13;99525.59;;;8.50;97.60
65758;BME280;52495;52.208;5.158;2022-11-23T04:48:42;99527.31;;;8.52;96.80
65758;BME280;52495;52.208;5.158;2022-11-23T04:51:09;99531.50;;;8.54;97.38
65758;BME280;52495;52.208;5.158;2022-11-23T04:53:37;99543.47;;;8.55;97.03
65758;BME280;52495;52.208;5.158;2022-11-23T04:56:05;99530.72;;;8.52;97.76
65758;BME280;52495;52.208;5.158;2022-11-23T04:58:36;99534.94;;;8.55;97.73
65758;BME280;52495;52.208;5.158;2022-11-23T05:01:05;99530.53;;;8.58;97.22
65758;BME280;52495;52.208;5.158;2022-11-23T05:03:38;99527.06;;;8.59;97.20
65758;BME280;52495;52.208;5.158;2022-11-23T05:06:08;99526.25;;;8.59;97.08
65758;BME280;52495;52.208;5.158;2022-11-23T05:08:39;99529.69;;;8.58;96.53
65758;BME280;52495;52.208;5.158;2022-11-23T05:11:37;99528.84;;;8.57;97.05
65758;BME280;52495;52.208;5.158;2022-11-23T05:14:05;99525.28;;;8.61;97.19
65758;BME280;52495;52.208;5.158;2022-11-23T05:16:34;99521.09;;;8.59;96.92
65758;BME280;52495;52.208;5.158;2022-11-23T05:19:01;99523.69;;;8.57;96.42
65758;BME280;52495;52.208;5.158;2022-11-23T05:21:27;99527.81;;;8.63;96.20
65758;BME280;52495;52.208;5.158;2022-11-23T05:23:54;99526.25;;;8.59;95.89
65758;BME280;52495;52.208;5.158;2022-11-23T05:26:21;99520.28;;;8.57;96.15
65758;BME280;52495;52.208;5.158;2022-11-23T05:28:47;99525.47;;;8.55;96.53
65758;BME280;52495;52.208;5.158;2022-11-23T05:31:14;99518.69;;;8.53;96.37
65758;BME280;52495;52.208;5.158;2022-11-23T05:33:45;99526.34;;;8.54;96.43
65758;BME280;52495;52.208;5.158;2022-11-23T05:36:15;99536.75;;;8.51;96.74
65758;BME280;52495;52.208;5.158;2022-11-23T05:38:42;99530.66;;;8.54;95.91
65758;BME280;52495;52.208;5.158;2022-11-23T05:41:22;99532.41;;;8.53;96.59
65758;BME280;52495;52.208;5.158;2022-11-23T05:43:53;99540.06;;;8.55;96.26
65758;BME280;52495;52.208;5.158;2022-11-23T05:46:24;99542.69;;;8.53;96.29
65758;BME280;52495;52.208;5.158;2022-11-23T05:48:52;99543.47;;;8.55;96.03
65758;BME280;52495;52.208;5.158;2022-11-23T05:51:19;99534.03;;;8.56;95.92
65758;BME280;52495;52.208;5.158;2022-11-23T05:53:47;99542.56;;;8.58;95.82
65758;BME280;52495;52.208;5.158;2022-11-23T05:56:21;99545.97;;;8.58;95.64
65758;BME280;52495;52.208;5.158;2022-11-23T05:59:00;99551.19;;;8.55;96.19
65758;BME280;52495;52.208;5.158;2022-11-23T06:01:26;99547.00;;;8.53;95.76
65758;BME280;52495;52.208;5.158;2022-11-23T06:03:58;99544.41;;;8.53;95.32
65758;BME280;52495;52.208;5.158;2022-11-23T06:06:28;99546.16;;;8.52;95.56
65758;BME280;52495;52.208;5.158;2022-11-23T06:08:55;99547.06;;;8.51;96.17
65758;BME280;52495;52.208;5.158;2022-11-23T06:11:22;99540.25;;;8.48;95.25
65758;BME280;52495;52.208;5.158;2022-11-23T06:13:49;99536.84;;;8.46;95.35
65758;BME280;52495;52.208;5.158;2022-11-23T06:16:16;99534.22;;;8.49;95.29
65758;BME280;52495;52.208;5.158;2022-11-23T06:18:56;99536.97;;;8.42;94.72
65758;BME280;52495;52.208;5.158;2022-11-23T06:21:24;99540.50;;;8.39;95.08
65758;BME280;52495;52.208;5.158;2022-11-23T06:23:50;99537.06;;;8.39;94.85
65758;BME280;52495;52.208;5.158;2022-11-23T06:26:18;99541.38;;;8.38;94.42
65758;BME280;52495;52.208;5.158;2022-11-23T06:28:46;99539.63;;;8.39;94.11
65758;BME280;52495;52.208;5.158;2022-11-23T06:31:15;99538.00;;;8.36;94.35
65758;BME280;52495;52.208;5.158;2022-11-23T06:33:42;99539.69;;;8.37;95.12
65758;BME280;52495;52.208;5.158;2022-11-23T06:36:09;99536.84;;;8.46;94.00
65758;BME280;52495;52.208;5.158;2022-11-23T06:38:43;99533.59;;;8.40;94.65
65758;BME280;52495;52.208;5.158;2022-11-23T06:41:18;99541.38;;;8.38;94.61
65758;BME280;52495;52.208;5.158;2022-11-23T06:43:46;99537.88;;;8.41;94.27
65758;BME280;52495;52.208;5.158;2022-11-23T06:46:20;99535.28;;;8.41;94.60
65758;BME280;52495;52.208;5.158;2022-11-23T06:48:47;99537.94;;;8.38;94.02
65758;BME280;52495;52.208;5.158;2022-11-23T06:51:15;99534.50;;;8.39;94.55
65758;BME280;52495;52.208;5.158;2022-11-23T06:53:44;99532.03;;;8.35;94.25
65758;BME280;52495;52.208;5.158;2022-11-23T06:56:12;99531.91;;;8.39;94.53
65758;BME280;52495;52.208;5.158;2022-11-23T06:58:41;99537.22;;;8.34;94.12
65758;BME280;52495;52.208;5.158;2022-11-23T07:01:13;99553.59;;;8.31;94.51
65758;BME280;52495;52.208;5.158;2022-11-23T07:03:46;99563.06;;;8.29;94.33
65758;BME280;52495;52.208;5.158;2022-11-23T07:06:20;99568.25;;;8.28;93.88
65758;BME280;52495;52.208;5.158;2022-11-23T07:08:53;99570.84;;;8.26;94.10
65758;BME280;52495;52.208;5.158;2022-11-23T07:11:27;99569.97;;;8.27;94.13
65758;BME280;52495;52.208;5.158;2022-11-23T07:13:54;99574.38;;;8.24;94.19
65758;BME280;52495;52.208;5.158;2022-11-23T07:16:24;99574.38;;;8.24;93.93
65758;BME280;52495;52.208;5.158;2022-11-23T07:18:51;99577.75;;;8.26;93.68
65758;BME280;52495;52.208;5.158;2022-11-23T07:21:17;99581.16;;;8.26;93.48
65758;BME280;52495;52.208;5.158;2022-11-23T07:23:45;99581.31;;;8.20;92.70
65758;BME280;52495;52.208;5.158;2022-11-23T07:26:13;99587.38;;;8.17;92.79
65758;BME280;52495;52.208;5.158;2022-11-23T07:28:40;99597.84;;;8.11;93.13
65758;BME280;52495;52.208;5.158;2022-11-23T07:31:08;99606.47;;;8.09;92.41
65758;BME280;52495;52.208;5.158;2022-11-23T07:33:36;99601.38;;;8.07;92.13
65758;BME280;52495;52.208;5.158;2022-11-23T07:36:03;99611.66;;;8.07;91.77
65758;BME280;52495;52.208;5.158;2022-11-23T07:38:30;99617.72;;;8.04;92.15
65758;BME280;52495;52.208;5.158;2022-11-23T07:40:59;99608.41;;;8.00;91.75
65758;BME280;52495;52.208;5.158;2022-11-23T07:43:48;99617.72;;;8.04;91.86
65758;BME280;52495;52.208;5.158;2022-11-23T07:46:15;99616.00;;;8.05;91.93
65758;BME280;52495;52.208;5.158;2022-11-23T07:48:42;99620.28;;;8.04;92.42
65758;BME280;52495;52.208;5.158;2022-11-23T07:51:08;99613.44;;;8.05;91.83
65758;BME280;52495;52.208;5.158;2022-11-23T07:53:35;99622.78;;;8.08;91.80
65758;BME280;52495;52.208;5.158;2022-11-23T07:56:02;99620.38;;;8.01;91.53
65758;BME280;52495;52.208;5.158;2022-11-23T07:58:29;99626.22;;;8.08;91.50
65758;BME280;52495;52.208;5.158;2022-11-23T08:00:58;99633.00;;;8.11;91.70
65758;BME280;52495;52.208;5.158;2022-11-23T08:03:25;99630.41;;;8.11;91.31
65758;BME280;52495;52.208;5.158;2022-11-23T08:05:52;99630.25;;;8.17;91.82
65758;BME280;52495;52.208;5.158;2022-11-23T08:08:18;99620.88;;;8.14;91.48
65758;BME280;52495;52.208;5.158;2022-11-23T08:10:45;99621.75;;;8.15;91.27
65758;BME280;52495;52.208;5.158;2022-11-23T08:13:12;99629.31;;;8.19;91.30
65758;BME280;52495;52.208;5.158;2022-11-23T08:15:38;99625.16;;;8.15;91.16
65758;BME280;52495;52.208;5.158;2022-11-23T08:18:08;99625.16;;;8.15;91.57
65758;BME280;52495;52.208;5.158;2022-11-23T08:20:34;99628.66;;;8.13;91.87
65758;BME280;52495;52.208;5.158;2022-11-23T08:23:01;99634.63;;;8.13;91.76
65758;BME280;52495;52.208;5.158;2022-11-23T08:25:28;99634.59;;;8.15;92.53
65758;BME280;52495;52.208;5.158;2022-11-23T08:27:55;99625.94;;;8.19;91.80
65758;BME280;52495;52.208;5.158;2022-11-23T08:30:22;99641.34;;;8.19;92.43
65758;BME280;52495;52.208;5.158;2022-11-23T08:32:49;99630.97;;;8.22;91.97
65758;BME280;52495;52.208;5.158;2022-11-23T08:35:17;99626.69;;;8.23;92.29
65758;BME280;52495;52.208;5.158;2022-11-23T08:37:45;99627.59;;;8.20;92.77
65758;BME280;52495;52.208;5.158;2022-11-23T08:40:13;99630.75;;;8.30;92.17
65758;BME280;52495;52.208;5.158;2022-11-23T08:42:39;99627.22;;;8.34;92.62
65758;BME280;52495;52.208;5.158;2022-11-23T08:45:07;99631.41;;;8.38;92.64
65758;BME280;52495;52.208;5.158;2022-11-23T08:47:35;99626.31;;;8.37;93.04
65758;BME280;52495;52.208;5.158;2022-11-23T08:50:02;99642.50;;;8.39;92.66
65758;BME280;52495;52.208;5.158;2022-11-23T08:52:30;99636.53;;;8.38;92.83
65758;BME280;52495;52.208;5.158;2022-11-23T08:54:57;99634.81;;;8.39;92.93
65758;BME280;52495;52.208;5.158;2022-11-23T08:57:24;99627.88;;;8.42;92.31
65758;BME280;52495;52.208;5.158;2022-11-23T08:59:50;99633.88;;;8.41;92.34
65758;BME280;52495;52.208;5.158;2022-11-23T09:02:17;99635.69;;;8.38;92.55
65758;BME280;52495;52.208;5.158;2022-11-23T09:04:44;99634.72;;;8.42;92.77
65758;BME280;52495;52.208;5.158;2022-11-23T09:07:10;99627.88;;;8.42;92.87
65758;BME280;52495;52.208;5.158;2022-11-23T09:09:38;99638.00;;;8.48;92.26
65758;BME280;52495;52.208;5.158;2022-11-23T09:12:05;99622.63;;;8.45;91.97
65758;BME280;52495;52.208;5.158;2022-11-23T09:14:33;99624.09;;;8.54;91.72
65758;BME280;52495;52.208;5.158;2022-11-23T09:17:00;99619.09;;;8.49;91.71
65758;BME280;52495;52.208;5.158;2022-11-23T09:19:27;99618.13;;;8.54;91.50
65758;BME280;52495;52.208;5.158;2022-11-23T09:21:54;99620.66;;;8.55;91.06
65758;BME280;52495;52.208;5.158;2022-11-23T09:24:20;99617.75;;;8.68;90.27
65758;BME280;52495;52.208;5.158;2022-11-23T09:26:49;99616.00;;;8.68;90.24
65758;BME280;52495;52.208;5.158;2022-11-23T09:29:16;99613.44;;;8.68;89.49
65758;BME280;52495;52.208;5.158;2022-11-23T09:31:42;99613.41;;;8.70;88.74
65758;BME280;52495;52.208;5.158;2022-11-23T09:34:10;99603.00;;;8.73;88.76
65758;BME280;52495;52.208;5.158;2022-11-23T09:36:37;99604.50;;;8.80;88.06
65758;BME280;52495;52.208;5.158;2022-11-23T09:39:04;99594.88;;;8.87;87.86
65758;BME280;52495;52.208;5.158;2022-11-23T09:44:51;99580.69;;;9.02;86.23
65758;BME280;52495;52.208;5.158;2022-11-23T09:47:37;99591.09;;;8.99;85.97
65758;BME280;52495;52.208;5.158;2022-11-23T09:50:12;99579.94;;;8.98;85.72
65758;BME280;52495;52.208;5.158;2022-11-23T09:52:44;99573.81;;;9.02;86.00
65758;BME280;52495;52.208;5.158;2022-11-23T09:55:16;99568.72;;;9.01;83.84
65758;BME280;52495;52.208;5.158;2022-11-23T09:57:48;99561.03;;;8.99;83.14
65758;BME280;52495;52.208;5.158;2022-11-23T10:00:20;99554.06;;;9.03;82.31
65758;BME280;52495;52.208;5.158;2022-11-23T10:02:48;99542.88;;;9.04;82.24
65758;BME280;52495;52.208;5.158;2022-11-23T10:05:17;99541.78;;;9.11;82.18
65758;BME280;52495;52.208;5.158;2022-11-23T10:07:57;99544.16;;;9.17;81.45
65758;BME280;52495;52.208;5.158;2022-11-23T10:10:38;99542.25;;;9.22;82.01
65758;BME280;52495;52.208;5.158;2022-11-23T10:13:19;99532.72;;;9.26;81.04
65758;BME280;52495;52.208;5.158;2022-11-23T10:16:03;99547.47;;;9.21;79.51
65758;BME280;52495;52.208;5.158;2022-11-23T10:18:43;99543.91;;;9.25;80.15
65758;BME280;52495;52.208;5.158;2022-11-23T10:21:18;99545.53;;;9.27;79.55
65758;BME280;52495;52.208;5.158;2022-11-23T10:23:53;99541.34;;;9.25;79.90
65758;BME280;52495;52.208;5.158;2022-11-23T10:26:26;99547.22;;;9.29;79.85
65758;BME280;52495;52.208;5.158;2022-11-23T10:28:53;99535.94;;;9.33;79.70
65758;BME280;52495;52.208;5.158;2022-11-23T10:31:23;99551.28;;;9.36;79.88
65758;BME280;52495;52.208;5.158;2022-11-23T10:33:54;99545.34;;;9.34;78.58
65758;BME280;52495;52.208;5.158;2022-11-23T10:36:23;99554.75;;;9.35;79.20
65758;BME280;52495;52.208;5.158;2022-11-23T10:38:54;99553.88;;;9.34;78.58
65758;BME280;52495;52.208;5.158;2022-11-23T10:41:22;99554.69;;;9.36;79.24
65758;BME280;52495;52.208;5.158;2022-11-23T10:43:53;99550.22;;;9.41;79.09
65758;BME280;52495;52.208;5.158;2022-11-23T10:46:25;99566.75;;;9.36;78.51
65758;BME280;52495;52.208;5.158;2022-11-23T10:48:54;99548.44;;;9.44;77.90
65758;BME280;52495;52.208;5.158;2022-11-23T10:51:25;99547.56;;;9.45;78.27
65758;BME280;52495;52.208;5.158;2022-11-23T10:53:57;99550.03;;;9.48;78.31
65758;BME280;52495;52.208;5.158;2022-11-23T10:56:24;99549.03;;;9.52;78.12
65758;BME280;52495;52.208;5.158;2022-11-23T10:58:51;99549.03;;;9.52;78.30
65758;BME280;52495;52.208;5.158;2022-11-23T11:01:20;99546.53;;;9.49;78.06
65758;BME280;52495;52.208;5.158;2022-11-23T11:03:50;99542.41;;;9.45;77.25
65758;BME280;52495;52.208;5.158;2022-11-23T11:06:22;99540.56;;;9.48;77.37
65758;BME280;52495;52.208;5.158;2022-11-23T11:08:51;99544.72;;;9.52;78.25
65758;BME280;52495;52.208;5.158;2022-11-23T11:11:23;99547.25;;;9.54;78.73
65758;BME280;52495;52.208;5.158;2022-11-23T11:13:50;99541.03;;;9.60;78.37
65758;BME280;52495;52.208;5.158;2022-11-23T11:16:20;99546.28;;;9.56;77.74
65758;BME280;52495;52.208;5.158;2022-11-23T11:18:47;99549.81;;;9.54;78.40
65758;BME280;52495;52.208;5.158;2022-11-23T11:21:20;99547.34;;;9.51;77.84
65758;BME280;52495;52.208;5.158;2022-11-23T11:23:51;99555.06;;;9.51;77.19
65758;BME280;52495;52.208;5.158;2022-11-23T11:26:20;99552.00;;;9.39;77.82
65758;BME280;52495;52.208;5.158;2022-11-23T11:28:49;99557.25;;;9.36;78.42
65758;BME280;52495;52.208;5.158;2022-11-23T11:31:26;99543.69;;;9.31;78.04
65758;BME280;52495;52.208;5.158;2022-11-23T11:34:01;99550.59;;;9.31;77.91
65758;BME280;52495;52.208;5.158;2022-11-23T11:36:35;99546.56;;;9.22;78.37
65758;BME280;52495;52.208;5.158;2022-11-23T11:39:07;99531.19;;;9.20;78.56
65758;BME280;52495;52.208;5.158;2022-11-23T11:41:37;99527.72;;;9.21;78.67
65758;BME280;52495;52.208;5.158;2022-11-23T11:44:08;99511.31;;;9.24;79.12
65758;BME280;52495;52.208;5.158;2022-11-23T11:46:39;99503.50;;;9.27;79.26
65758;BME280;52495;52.208;5.158;2022-11-23T11:49:12;99506.78;;;9.31;78.34
65758;BME280;52495;52.208;5.158;2022-11-23T11:51:44;99499.00;;;9.32;78.59
65758;BME280;52495;52.208;5.158;2022-11-23T11:54:17;99499.69;;;9.37;78.19
65758;BME280;52495;52.208;5.158;2022-11-23T11:56:49;99479.81;;;9.41;78.13
65758;BME280;52495;52.208;5.158;2022-11-23T11:59:21;99475.38;;;9.46;77.06
65758;BME280;52495;52.208;5.158;2022-11-23T12:01:54;99476.09;;;9.50;76.80
65758;BME280;52495;52.208;5.158;2022-11-23T12:04:25;99468.22;;;9.54;76.61
65758;BME280;52495;52.208;5.158;2022-11-23T12:07:02;99478.28;;;9.61;76.24
65758;BME280;52495;52.208;5.158;2022-11-23T12:09:35;99467.97;;;9.61;76.63
65758;BME280;52495;52.208;5.158;2022-11-23T12:12:09;99466.31;;;9.60;76.57
65758;BME280;52495;52.208;5.158;2022-11-23T12:14:38;99466.88;;;9.68;76.72
65758;BME280;52495;52.208;5.158;2022-11-23T12:17:09;99454.03;;;9.66;77.10
65758;BME280;52495;52.208;5.158;2022-11-23T12:19:53;99462.72;;;9.64;76.94
65758;BME280;52495;52.208;5.158;2022-11-23T12:22:34;99453.09;;;9.69;76.04
65758;BME280;52495;52.208;5.158;2022-11-23T12:25:13;99456.41;;;9.72;76.92
65758;BME280;52495;52.208;5.158;2022-11-23T12:27:47;99459.59;;;9.79;76.90
65758;BME280;52495;52.208;5.158;2022-11-23T12:30:22;99442.22;;;9.84;76.01
65758;BME280;52495;52.208;5.158;2022-11-23T12:33:18;99438.88;;;9.82;75.94
65758;BME280;52495;52.208;5.158;2022-11-23T12:36:02;99455.13;;;9.84;76.30
65758;BME280;52495;52.208;5.158;2022-11-23T12:38:41;99453.97;;;9.92;75.48
65758;BME280;52495;52.208;5.158;2022-11-23T12:41:21;99460.72;;;9.96;75.48
65758;BME280;52495;52.208;5.158;2022-11-23T12:44:00;99450.69;;;9.88;75.44
65758;BME280;52495;52.208;5.158;2022-11-23T12:46:36;99451.00;;;10.02;75.36
65758;BME280;52495;52.208;5.158;2022-11-23T12:49:20;99454.47;;;10.01;75.35
65758;BME280;52495;52.208;5.158;2022-11-23T12:51:57;99447.59;;;10.02;75.05
65758;BME280;52495;52.208;5.158;2022-11-23T12:54:46;99444.06;;;10.05;74.96
65758;BME280;52495;52.208;5.158;2022-11-23T12:57:21;99440.66;;;10.04;75.37
65758;BME280;52495;52.208;5.158;2022-11-23T12:59:53;99448.38;;;10.04;74.94
65758;BME280;52495;52.208;5.158;2022-11-23T13:11:05;99430.56;;;9.98;75.10
65758;BME280;52495;52.208;5.158;2022-11-23T13:13:48;99431.34;;;10.00;75.24
65758;BME280;52495;52.208;5.158;2022-11-23T13:16:41;99432.34;;;9.96;75.46
65758;BME280;52495;52.208;5.158;2022-11-23T13:19:30;99433.31;;;9.93;75.06
65758;BME280;52495;52.208;5.158;2022-11-23T13:22:04;99439.00;;;10.01;75.82
65758;BME280;52495;52.208;5.158;2022-11-23T13:24:33;99446.88;;;9.98;75.59
65758;BME280;52495;52.208;5.158;2022-11-23T13:27:39;99455.56;;;9.96;75.19
65758;BME280;52495;52.208;5.158;2022-11-23T13:30:15;99458.25;;;9.93;75.43
65758;BME280;52495;52.208;5.158;2022-11-23T13:32:58;99451.41;;;9.92;76.32
65758;BME280;52495;52.208;5.158;2022-11-23T13:35:49;99462.50;;;9.94;76.54
65758;BME280;52495;52.208;5.158;2022-11-23T13:38:38;99459.94;;;9.94;76.69